Time;durP1;ratioP1;P1;durP2;ratioP2;P2;SDS_P1;SDS_P2;PMS_P1;PMS_P2;Temp;Humidity;BMP_temperature;BMP_pressure;BME280_temperature;BME280_humidity;BME280_pressure;Samples;Min_cycle;Max_cycle;Signal;HPM_P1;HPM_P2
2022/04/12 00:02:45;;;;;;;5.45;1.35;;;15.50;47.40;;;;;;5986181;29;20038;-72
2022/04/12 00:05:46;;;;;;;9.30;1.50;;;15.50;47.40;;;;;;5983198;29;20054;-72
2022/04/12 00:08:47;;;;;;;2.83;0.95;;;15.50;47.40;;;;;;5984800;29;20130;-72
2022/04/12 00:11:48;;;;;;;6.80;1.30;;;15.50;47.40;;;;;;5983246;29;20148;-73
2022/04/12 00:14:51;;;;;;;8.40;1.38;;;15.40;47.40;;;;;;5960619;29;20038;-72
2022/04/12 00:21:12;;;;;;;1.25;0.70;;;15.40;47.60;;;;;;5961233;29;20027;-72
2022/04/12 00:24:13;;;;;;;7.63;1.20;;;15.30;47.50;;;;;;5964936;29;20046;-72
2022/04/12 00:27:13;;;;;;;5.90;1.27;;;15.30;47.50;;;;;;5965335;29;20349;-73
2022/04/12 00:30:15;;;;;;;5.53;1.15;;;15.30;47.40;;;;;;5962490;29;20476;-72
2022/04/12 00:33:16;;;;;;;4.43;1.10;;;15.30;47.40;;;;;;5960533;29;20076;-72
2022/04/12 00:36:18;;;;;;;1.63;0.80;;;15.30;47.30;;;;;;5962350;29;20457;-72
2022/04/12 00:39:19;;;;;;;6.40;1.20;;;15.30;47.20;;;;;;5975309;29;20188;-73
2022/04/12 00:42:20;;;;;;;8.02;1.30;;;15.30;47.20;;;;;;5961532;29;20137;-72
2022/04/12 00:45:21;;;;;;;5.55;1.73;;;15.30;47.30;;;;;;5959301;29;20038;-73
2022/04/12 00:48:22;;;;;;;3.83;0.88;;;15.30;47.30;;;;;;5962028;29;20108;-73
2022/04/12 00:51:23;;;;;;;3.63;1.08;;;15.20;47.30;;;;;;5960598;29;20122;-72
2022/04/12 00:54:25;;;;;;;11.75;1.23;;;15.20;47.30;;;;;;5960754;29;20039;-73
2022/04/12 00:57:26;;;;;;;10.55;1.05;;;15.10;47.40;;;;;;5960604;29;20395;-73
2022/04/12 01:00:27;;;;;;;8.80;1.13;;;15.20;47.50;;;;;;5960725;29;20054;-73
2022/04/12 01:03:28;;;;;;;5.05;1.10;;;15.10;47.60;;;;;;5958807;29;20038;-72
2022/04/12 01:06:28;;;;;;;8.80;1.13;;;15.10;47.70;;;;;;5959024;29;20103;-73
2022/04/12 01:09:30;;;;;;;12.52;1.20;;;15.00;47.70;;;;;;5961785;29;20047;-73
2022/04/12 01:12:38;;;;;;;1.52;0.90;;;15.00;47.80;;;;;;5962829;29;20058;-72
2022/04/12 01:15:40;;;;;;;1.90;1.10;;;15.00;47.80;;;;;;5989780;29;20066;-72
2022/04/12 01:18:41;;;;;;;1.85;0.75;;;15.00;47.70;;;;;;5965158;29;20065;-73
2022/04/12 01:21:51;;;;;;;3.67;0.82;;;15.00;47.80;;;;;;5971019;29;20479;-73
2022/04/12 01:24:52;;;;;;;3.40;0.98;;;15.00;47.80;;;;;;5983327;29;20042;-73
2022/04/12 01:27:53;;;;;;;5.88;1.30;;;15.00;47.70;;;;;;5992005;29;20030;-73
2022/04/12 01:30:54;;;;;;;7.57;1.00;;;14.90;47.70;;;;;;5971081;29;20045;-72
2022/04/12 01:33:55;;;;;;;5.38;1.13;;;14.90;47.80;;;;;;5974075;29;20132;-72
2022/04/12 01:36:56;;;;;;;3.22;1.00;;;14.90;47.80;;;;;;5987602;29;20035;-72
2022/04/12 01:39:57;;;;;;;5.85;0.85;;;14.90;47.80;;;;;;5987091;29;20118;-72
2022/04/12 01:42:58;;;;;;;7.20;1.17;;;14.90;47.80;;;;;;5973716;29;20179;-73
2022/04/12 01:45:59;;;;;;;4.47;0.93;;;14.90;47.80;;;;;;5987733;29;20039;-72
2022/04/12 01:49:00;;;;;;;2.63;1.17;;;14.80;47.80;;;;;;5987712;29;20063;-74
2022/04/12 01:52:02;;;;;;;3.88;0.88;;;14.90;47.80;;;;;;5987466;29;20030;-73
2022/04/12 01:55:04;;;;;;;7.80;1.40;;;14.80;47.80;;;;;;5988889;29;20046;-73
2022/04/12 01:58:05;;;;;;;4.25;0.85;;;14.80;47.80;;;;;;5971576;29;20058;-72
2022/04/12 02:01:05;;;;;;;2.35;1.13;;;14.80;47.90;;;;;;5987518;29;20039;-73
2022/04/12 02:04:07;;;;;;;6.22;1.55;;;14.80;47.90;;;;;;5986247;29;20053;-72
2022/04/12 02:07:08;;;;;;;7.10;1.15;;;14.80;47.90;;;;;;5987275;29;20376;-72
2022/04/12 02:10:09;;;;;;;2.67;1.05;;;14.80;47.90;;;;;;5972913;29;20042;-73
2022/04/12 02:13:10;;;;;;;9.15;1.00;;;14.70;47.80;;;;;;5986510;29;20050;-73
2022/04/12 02:16:11;;;;;;;2.22;0.70;;;14.70;47.80;;;;;;5987658;29;20050;-72
2022/04/12 02:19:12;;;;;;;4.38;1.05;;;14.70;47.80;;;;;;5971345;29;20096;-73
2022/04/12 02:22:13;;;;;;;5.35;1.08;;;14.70;47.90;;;;;;5988202;29;20035;-73
2022/04/12 02:25:14;;;;;;;5.90;2.00;;;14.70;47.90;;;;;;5995615;29;20039;-72
2022/04/12 02:28:16;;;;;;;5.05;0.90;;;14.70;47.80;;;;;;5985738;29;20065;-73
2022/04/12 02:31:17;;;;;;;1.60;0.57;;;14.70;47.90;;;;;;5990554;29;20508;-73
2022/04/12 02:34:18;;;;;;;5.80;1.25;;;14.60;47.70;;;;;;5985097;29;20090;-72
2022/04/12 02:37:19;;;;;;;2.35;1.10;;;14.60;47.70;;;;;;5978572;29;20421;-72
2022/04/12 02:40:19;;;;;;;6.35;1.05;;;14.60;47.70;;;;;;5989233;29;20050;-73
2022/04/12 02:43:20;;;;;;;8.57;1.33;;;14.60;47.60;;;;;;5979730;29;20041;-73
2022/04/12 02:46:21;;;;;;;3.45;0.93;;;14.60;47.60;;;;;;5970704;29;20049;-73
2022/04/12 02:49:22;;;;;;;2.65;1.05;;;14.50;47.50;;;;;;5973478;29;20042;-73
2022/04/12 02:52:23;;;;;;;1.63;0.63;;;14.50;47.40;;;;;;5988786;29;20046;-72
2022/04/12 02:55:24;;;;;;;6.13;1.17;;;14.50;47.40;;;;;;5961781;29;20046;-73
2022/04/12 02:58:24;;;;;;;1.70;0.90;;;14.50;47.50;;;;;;5991907;29;20069;-73
2022/04/12 03:01:25;;;;;;;5.53;1.30;;;14.50;47.40;;;;;;5956673;29;20038;-73
2022/04/12 03:04:27;;;;;;;3.92;1.10;;;14.50;47.50;;;;;;5969801;29;20069;-72
2022/04/12 03:07:28;;;;;;;6.60;1.00;;;14.50;47.40;;;;;;5975373;29;20034;-73
2022/04/12 03:10:29;;;;;;;6.47;1.15;;;14.50;47.40;;;;;;5973597;29;20042;-73
2022/04/12 03:13:30;;;;;;;4.45;1.45;;;14.50;47.40;;;;;;5986062;29;20060;-73
2022/04/12 03:16:32;;;;;;;4.07;0.90;;;14.50;47.40;;;;;;5983949;29;20072;-72
2022/04/12 03:19:33;;;;;;;2.60;0.93;;;14.50;47.40;;;;;;5965210;29;20047;-73
2022/04/12 03:22:34;;;;;;;8.55;0.88;;;14.50;47.50;;;;;;5962031;29;20055;-73
2022/04/12 03:25:35;;;;;;;7.07;1.00;;;14.40;47.50;;;;;;5963701;29;20050;-73
2022/04/12 03:28:36;;;;;;;2.08;0.90;;;14.30;47.50;;;;;;5977682;29;20069;-73
2022/04/12 03:31:37;;;;;;;6.38;1.10;;;14.40;47.50;;;;;;5962103;29;20123;-73
2022/04/12 03:34:40;;;;;;;7.25;1.48;;;14.40;47.40;;;;;;5962712;29;20039;-73
2022/04/12 03:37:41;;;;;;;7.65;0.90;;;14.40;47.40;;;;;;5963114;29;20039;-73
2022/04/12 03:40:42;;;;;;;2.65;0.90;;;14.40;47.20;;;;;;5963973;29;20066;-73
2022/04/12 03:43:43;;;;;;;2.22;0.80;;;14.40;47.10;;;;;;5961099;29;20055;-72
2022/04/12 03:46:44;;;;;;;1.58;0.85;;;14.40;47.10;;;;;;5962831;29;20047;-73
2022/04/12 03:49:44;;;;;;;6.82;1.25;;;14.40;47.10;;;;;;5973316;29;20322;-73
2022/04/12 03:52:45;;;;;;;2.78;0.93;;;14.40;47.10;;;;;;5961651;29;20062;-73
2022/04/12 03:55:46;;;;;;;9.85;1.40;;;14.40;47.10;;;;;;5961317;29;20043;-73
2022/04/12 03:58:47;;;;;;;2.88;0.82;;;14.40;46.90;;;;;;5960469;29;20110;-73
2022/04/12 04:01:50;;;;;;;5.18;1.08;;;14.40;46.80;;;;;;5947411;29;21012;-73
2022/04/12 04:04:50;;;;;;;2.70;1.08;;;14.40;46.70;;;;;;5974373;29;20057;-72
2022/04/12 04:07:52;;;;;;;1.30;0.80;;;14.50;46.70;;;;;;5961763;29;20043;-73
2022/04/12 04:10:53;;;;;;;4.15;1.02;;;14.40;46.50;;;;;;5960757;29;20041;-73
2022/04/12 04:13:55;;;;;;;7.68;1.20;;;14.50;46.30;;;;;;5959284;29;20058;-72
2022/04/12 04:16:57;;;;;;;2.03;0.93;;;14.50;46.10;;;;;;5978964;29;20050;-72
2022/04/12 04:19:58;;;;;;;6.05;0.88;;;14.50;46.00;;;;;;5962022;29;20108;-72
2022/04/12 04:22:59;;;;;;;6.22;1.65;;;14.50;46.50;;;;;;5961222;29;20427;-73
2022/04/12 04:26:00;;;;;;;4.88;0.90;;;14.50;45.60;;;;;;5962254;29;20039;-73
2022/04/12 04:29:01;;;;;;;2.72;0.90;;;14.50;45.60;;;;;;5960570;29;20386;-72
2022/04/12 04:32:03;;;;;;;4.03;0.95;;;14.50;45.50;;;;;;5959371;29;20031;-72
2022/04/12 04:35:05;;;;;;;1.58;1.00;;;14.60;45.50;;;;;;5961923;29;20035;-72
2022/04/12 04:38:06;;;;;;;5.20;0.85;;;14.60;45.40;;;;;;5961087;29;20051;-73
2022/04/12 04:41:06;;;;;;;4.28;2.20;;;14.60;45.60;;;;;;5981245;29;20085;-73
2022/04/12 04:44:07;;;;;;;8.50;1.70;;;14.60;45.90;;;;;;5961379;29;20047;-72
2022/04/12 04:47:08;;;;;;;10.63;1.88;;;14.60;46.90;;;;;;5962162;29;20047;-73
2022/04/12 04:50:09;;;;;;;5.22;1.92;;;14.60;48.00;;;;;;5961934;29;20047;-73
2022/04/12 04:53:10;;;;;;;7.38;1.85;;;14.50;48.60;;;;;;5958648;29;20111;-73
2022/04/12 04:56:11;;;;;;;6.47;1.95;;;14.60;49.30;;;;;;5959949;29;20043;-73
2022/04/12 04:59:13;;;;;;;7.28;2.25;;;14.50;49.70;;;;;;5960512;29;20043;-73
2022/04/12 05:02:13;;;;;;;6.65;2.15;;;14.50;50.20;;;;;;5960905;29;20129;-72
2022/04/12 05:05:16;;;;;;;15.25;2.30;;;14.50;50.60;;;;;;5961060;29;20056;-73
2022/04/12 05:08:16;;;;;;;8.50;2.53;;;14.40;50.70;;;;;;5961796;29;20114;-72
2022/04/12 05:11:17;;;;;;;6.28;2.28;;;14.50;50.90;;;;;;5959527;29;20039;-73
2022/04/12 05:14:19;;;;;;;7.80;2.20;;;14.50;51.10;;;;;;5965867;29;20270;-72
2022/04/12 05:17:27;;;;;;;5.55;1.85;;;14.40;51.30;;;;;;5961541;29;20039;-73
2022/04/12 05:20:28;;;;;;;;;;;14.50;51.30;;;;;;5975121;29;20095;-72
2022/04/12 05:23:29;;;;;;;8.05;1.98;;;14.40;51.30;;;;;;5962818;29;19925;-73
2022/04/12 05:26:30;;;;;;;3.25;1.60;;;14.40;51.10;;;;;;5964445;29;20125;-72
2022/04/12 05:29:31;;;;;;;7.13;1.88;;;14.50;51.10;;;;;;5955467;29;20103;-73
2022/04/12 05:32:31;;;;;;;13.70;2.17;;;14.50;50.90;;;;;;5974980;29;20043;-72
2022/04/12 05:35:32;;;;;;;10.52;1.63;;;14.60;50.60;;;;;;5960673;29;20063;-73
2022/04/12 05:38:33;;;;;;;8.52;1.80;;;14.60;50.20;;;;;;5963279;29;20057;-71
2022/04/12 05:41:34;;;;;;;12.55;1.30;;;14.60;49.60;;;;;;5960822;29;20069;-71
2022/04/12 05:44:35;;;;;;;5.03;1.23;;;14.60;49.00;;;;;;5959664;29;20134;-72
2022/04/12 05:47:55;;;;;;;3.05;1.38;;;14.60;48.50;;;;;;5956974;29;20043;-71
2022/04/12 05:50:56;;;;;;;3.65;1.10;;;14.60;48.00;;;;;;5957970;29;20443;-70
2022/04/12 05:53:57;;;;;;;5.65;1.83;;;14.60;47.70;;;;;;5958346;29;20063;-71
2022/04/12 05:56:58;;;;;;;7.55;1.45;;;14.60;47.80;;;;;;5956945;29;20178;-73
2022/04/12 05:59:59;;;;;;;6.15;1.35;;;14.50;47.70;;;;;;5960732;29;20039;-72
2022/04/12 06:03:02;;;;;;;13.93;1.50;;;14.60;47.70;;;;;;5958267;29;20051;-72
2022/04/12 06:06:03;;;;;;;5.43;1.20;;;14.60;47.40;;;;;;5955587;29;20179;-69
2022/04/12 06:09:04;;;;;;;5.05;1.20;;;14.50;47.00;;;;;;5958557;29;20061;-69
2022/04/12 06:12:05;;;;;;;2.75;0.90;;;14.50;46.90;;;;;;5961395;29;20035;-70
2022/04/12 06:15:08;;;;;;;4.95;1.40;;;14.60;46.50;;;;;;5964105;29;20046;-70
2022/04/12 06:18:10;;;;;;;12.23;1.38;;;14.50;46.20;;;;;;5945347;29;20047;-69
2022/04/12 06:21:11;;;;;;;7.10;1.80;;;14.60;46.20;;;;;;5962828;29;20039;-70
2022/04/12 06:24:12;;;;;;;5.63;1.08;;;14.60;46.10;;;;;;5962969;29;20104;-69
2022/04/12 06:27:13;;;;;;;2.22;1.15;;;14.60;46.10;;;;;;5963068;29;20670;-69
2022/04/12 06:30:16;;;;;;;8.90;1.75;;;14.70;45.80;;;;;;5964118;29;20092;-69
2022/04/12 06:33:17;;;;;;;12.52;1.63;;;14.80;45.70;;;;;;5964945;29;20476;-70
2022/04/12 06:36:18;;;;;;;9.10;2.05;;;14.90;45.60;;;;;;5961312;29;20042;-70
2022/04/12 06:39:19;;;;;;;9.32;1.30;;;14.90;45.20;;;;;;5962937;29;20100;-70
2022/04/12 06:42:20;;;;;;;2.22;0.98;;;15.00;45.00;;;;;;5964308;29;20051;-70
2022/04/12 06:45:21;;;;;;;7.60;1.75;;;15.00;44.80;;;;;;5963483;29;20493;-69
2022/04/12 06:48:22;;;;;;;3.55;1.42;;;15.10;44.70;;;;;;5962238;29;20039;-70
2022/04/12 06:51:23;;;;;;;2.15;0.80;;;15.10;44.30;;;;;;5967951;29;20038;-70
2022/04/12 06:54:24;;;;;;;6.07;1.08;;;15.10;44.00;;;;;;5963010;29;20043;-70
2022/04/12 06:57:29;;;;;;;8.82;1.38;;;15.20;43.80;;;;;;5964181;29;20039;-70
2022/04/12 07:00:30;;;;;;;4.00;1.10;;;15.20;43.70;;;;;;5960629;29;20129;-70
2022/04/12 07:03:31;;;;;;;5.47;1.10;;;15.30;43.60;;;;;;5976600;29;20491;-70
2022/04/12 07:06:32;;;;;;;10.90;1.40;;;15.50;43.60;;;;;;5959193;29;20449;-70
2022/04/12 07:09:33;;;;;;;12.27;1.48;;;15.60;43.50;;;;;;5963371;29;20429;-70
2022/04/12 07:12:34;;;;;;;8.15;1.88;;;15.60;43.10;;;;;;5944229;29;20558;-70
2022/04/12 07:15:35;;;;;;;4.20;1.30;;;15.70;42.70;;;;;;5965506;29;20477;-70
2022/04/12 07:18:37;;;;;;;10.85;1.27;;;15.70;42.60;;;;;;5954322;29;20057;-69
2022/04/12 07:21:39;;;;;;;3.38;1.13;;;15.90;42.40;;;;;;5964671;29;20199;-69
2022/04/12 07:24:40;;;;;;;3.92;1.55;;;16.00;42.10;;;;;;5961829;29;20116;-69
2022/04/12 07:27:41;;;;;;;2.30;0.77;;;16.10;41.60;;;;;;5980097;29;20039;-69
2022/04/12 07:30:42;;;;;;;6.07;1.35;;;16.20;41.10;;;;;;5962310;29;20062;-70
2022/04/12 07:33:43;;;;;;;2.97;1.20;;;16.30;40.40;;;;;;5960111;29;20050;-69
2022/04/12 07:36:47;;;;;;;2.50;0.95;;;16.40;40.10;;;;;;5961302;29;20066;-69
2022/04/12 07:39:48;;;;;;;5.40;1.00;;;16.50;39.70;;;;;;5965546;29;20100;-68
2022/04/12 07:42:49;;;;;;;6.13;1.15;;;16.60;39.40;;;;;;5964409;29;20038;-70
2022/04/12 07:45:49;;;;;;;8.25;1.60;;;16.60;38.90;;;;;;5961777;29;20135;-70
2022/04/12 07:48:50;;;;;;;2.55;0.80;;;16.60;38.80;;;;;;5962408;29;20041;-69
2022/04/12 07:51:51;;;;;;;8.13;0.93;;;16.70;38.60;;;;;;5961619;29;20058;-70
2022/04/12 07:54:52;;;;;;;2.92;1.10;;;16.80;38.30;;;;;;5963089;29;20041;-69
2022/04/12 07:57:53;;;;;;;6.53;1.75;;;16.90;38.10;;;;;;5962127;29;20035;-69
2022/04/12 08:00:54;;;;;;;1.67;0.68;;;17.10;38.40;;;;;;5961955;29;20869;-69
2022/04/12 08:03:55;;;;;;;2.05;0.70;;;17.20;37.50;;;;;;5960989;29;20039;-70
2022/04/12 08:06:56;;;;;;;6.00;1.27;;;17.20;37.00;;;;;;5960503;29;20039;-69
2022/04/12 08:09:57;;;;;;;1.35;0.95;;;17.30;36.80;;;;;;5959043;29;20051;-70
2022/04/12 08:12:57;;;;;;;9.45;1.60;;;17.40;36.60;;;;;;5967966;29;20079;-70
2022/04/12 08:15:59;;;;;;;5.93;1.35;;;17.50;36.40;;;;;;5983012;29;20077;-69
2022/04/12 08:18:59;;;;;;;3.70;1.05;;;17.60;36.20;;;;;;5983207;29;20038;-68
2022/04/12 08:22:01;;;;;;;11.23;1.10;;;17.70;36.10;;;;;;5982551;29;20101;-69
2022/04/12 08:25:03;;;;;;;8.50;0.80;;;17.80;35.80;;;;;;5984989;29;20377;-69
2022/04/12 08:28:04;;;;;;;2.10;0.90;;;17.90;35.60;;;;;;5967543;29;20336;-69
2022/04/12 08:31:05;;;;;;;6.32;1.10;;;17.90;35.40;;;;;;5985232;29;20102;-69
2022/04/12 08:34:06;;;;;;;2.33;1.00;;;17.90;35.10;;;;;;5985071;29;20403;-69
2022/04/12 08:37:07;;;;;;;4.68;1.08;;;18.00;35.10;;;;;;5985844;29;20052;-69
2022/04/12 08:40:08;;;;;;;4.15;0.90;;;18.10;35.50;;;;;;5983407;29;20054;-69
2022/04/12 08:43:13;;;;;;;4.82;0.90;;;18.20;34.70;;;;;;5985221;29;20051;-71
2022/04/12 08:46:14;;;;;;;3.05;1.00;;;18.30;34.60;;;;;;5968338;29;20034;-68
2022/04/12 08:49:16;;;;;;;6.93;1.38;;;18.40;34.60;;;;;;5985400;29;20106;-68
2022/04/12 08:52:17;;;;;;;3.40;0.98;;;18.50;34.40;;;;;;5985366;29;20453;-69
2022/04/12 08:55:19;;;;;;;8.95;0.90;;;18.60;34.10;;;;;;5984850;29;20030;-69
2022/04/12 08:58:21;;;;;;;2.78;0.52;;;18.70;33.60;;;;;;5983877;29;20034;-69
2022/04/12 09:01:22;;;;;;;7.20;1.00;;;18.80;33.20;;;;;;5984961;29;20452;-69
2022/04/12 09:04:26;;;;;;;10.18;0.98;;;19.00;33.20;;;;;;5985341;29;20053;-70
2022/04/12 09:07:28;;;;;;;4.90;1.00;;;19.20;32.90;;;;;;5985823;29;20112;-70
2022/04/12 09:10:36;;;;;;;2.08;0.60;;;19.50;32.60;;;;;;5988450;29;20050;-69
2022/04/12 09:13:37;;;;;;;4.32;0.93;;;19.80;32.30;;;;;;5985400;29;20047;-71
2022/04/12 09:16:43;;;;;;;2.22;0.85;;;19.90;32.00;;;;;;5972583;29;20441;-70
2022/04/12 09:19:49;;;;;;;3.70;0.88;;;20.10;31.70;;;;;;5974359;29;20049;-70
2022/04/12 09:22:50;;;;;;;1.57;0.73;;;20.30;31.60;;;;;;5985616;29;20043;-70
2022/04/12 09:25:55;;;;;;;4.40;0.88;;;20.40;31.30;;;;;;5973565;29;20749;-70
2022/04/12 09:28:58;;;;;;;3.28;1.23;;;20.50;31.10;;;;;;5985923;29;20062;-70
2022/04/12 09:31:59;;;;;;;4.78;0.98;;;20.60;30.90;;;;;;5985479;29;20061;-70
2022/04/12 09:35:00;;;;;;;5.82;0.98;;;20.80;30.70;;;;;;5984489;29;21868;-70
2022/04/12 09:38:01;;;;;;;7.13;1.02;;;20.90;30.50;;;;;;5984506;29;20038;-70
2022/04/12 09:41:14;;;;;;;3.70;1.00;;;21.00;30.10;;;;;;5970511;29;20053;-70
2022/04/12 09:44:20;;;;;;;4.60;0.93;;;21.10;30.00;;;;;;5983908;29;20042;-70
2022/04/12 09:47:21;;;;;;;5.80;0.80;;;21.10;29.80;;;;;;5973429;29;20046;-70
2022/04/12 09:50:23;;;;;;;2.75;1.02;;;21.10;29.80;;;;;;5991922;29;20130;-70
2022/04/12 09:53:40;;;;;;;3.13;0.77;;;21.20;29.60;;;;;;5984221;29;20531;-69
2022/04/12 09:56:41;;;;;;;3.03;0.85;;;21.20;29.50;;;;;;5991586;29;20074;-69
2022/04/12 09:59:44;;;;;;;3.20;1.33;;;21.20;29.20;;;;;;5988789;29;20049;-70
2022/04/12 10:02:45;;;;;;;5.75;1.33;;;21.20;29.10;;;;;;5984850;29;20034;-69
2022/04/12 10:05:47;;;;;;;2.92;1.10;;;21.20;29.10;;;;;;5988367;29;20050;-69
2022/04/12 10:08:55;;;;;;;5.32;1.10;;;21.20;29.20;;;;;;5988797;29;20495;-69
2022/04/12 10:11:56;;;;;;;;;;;21.30;29.10;;;;;;5988475;29;20095;-69
2022/04/12 10:14:57;;;;;;;1.50;0.80;;;21.30;28.90;;;;;;5972922;29;19925;-72
2022/04/12 10:17:58;;;;;;;1.80;1.10;;;21.50;28.90;;;;;;5987351;29;20042;-68
2022/04/12 10:21:00;;;;;;;5.70;1.02;;;21.60;28.60;;;;;;5986661;29;20438;-70
2022/04/12 10:24:02;;;;;;;1.15;0.80;;;21.60;28.10;;;;;;5975205;29;20444;-69
2022/04/12 10:27:05;;;;;;;9.35;1.00;;;21.60;27.90;;;;;;5986239;29;20153;-70
2022/04/12 10:30:18;;;;;;;4.78;1.00;;;21.60;28.00;;;;;;5971766;29;20038;-69
2022/04/12 10:33:26;;;;;;;4.55;0.93;;;21.50;27.70;;;;;;5973729;29;20113;-70
2022/04/12 10:37:04;;;;;;;6.93;1.20;;;21.50;27.60;;;;;;5994047;29;20483;-70
2022/04/12 10:40:08;;;;;;;2.75;1.30;;;21.40;28.00;;;;;;5988447;29;20126;-69
2022/04/12 10:43:13;;;;;;;3.03;1.02;;;21.50;27.70;;;;;;5986828;29;20381;-69
2022/04/12 10:46:14;;;;;;;2.55;0.82;;;21.60;27.80;;;;;;5957417;29;20111;-71
2022/04/12 10:49:21;;;;;;;4.55;1.25;;;21.60;27.80;;;;;;5988546;29;20194;-69
2022/04/12 10:52:46;;;;;;;2.88;1.30;;;21.60;27.60;;;;;;5971049;29;20038;-69
2022/04/12 10:55:47;;;;;;;4.57;1.35;;;21.60;27.50;;;;;;5937994;29;20046;-70
2022/04/12 10:58:49;;;;;;;4.25;0.85;;;21.70;27.50;;;;;;5940741;29;20039;-70
2022/04/12 11:01:50;;;;;;;6.38;1.27;;;21.80;27.60;;;;;;5936992;29;20039;-69
2022/04/12 11:04:51;;;;;;;2.75;1.02;;;21.90;27.50;;;;;;5942410;29;20354;-70
2022/04/12 11:07:52;;;;;;;2.40;0.77;;;21.90;27.40;;;;;;5938800;29;20190;-70
2022/04/12 11:10:54;;;;;;;3.92;0.90;;;22.00;27.30;;;;;;5948500;29;20039;-71
2022/04/12 11:14:15;;;;;;;7.88;1.02;;;22.10;27.30;;;;;;5943342;29;20047;-70
2022/04/12 11:17:22;;;;;;;3.08;0.88;;;22.20;27.20;;;;;;5946696;29;20039;-70
2022/04/12 11:20:23;;;;;;;2.38;0.90;;;22.30;27.20;;;;;;5941866;29;20042;-70
2022/04/12 11:23:47;;;;;;;6.05;1.48;;;22.50;27.10;;;;;;5944177;29;20310;-71
2022/04/12 11:27:02;;;;;;;4.00;0.98;;;22.50;27.30;;;;;;5939531;29;20039;-69
2022/04/12 11:30:03;;;;;;;5.63;1.38;;;22.50;26.70;;;;;;5939802;29;20449;-69
2022/04/12 11:33:04;;;;;;;5.57;0.90;;;22.20;26.70;;;;;;5941215;29;20091;-69
2022/04/12 11:36:06;;;;;;;1.98;0.85;;;22.10;26.90;;;;;;5985588;29;20117;-69
2022/04/12 11:39:08;;;;;;;3.15;1.00;;;22.00;27.40;;;;;;5985231;29;20034;-69
2022/04/12 11:42:11;;;;;;;1.27;0.93;;;22.00;27.00;;;;;;5967699;29;22165;-69
2022/04/12 11:45:13;;;;;;;1.48;0.80;;;22.00;26.90;;;;;;5984734;29;20145;-69
2022/04/12 11:48:14;;;;;;;8.18;1.05;;;22.00;27.00;;;;;;5985378;29;20038;-69
2022/04/12 11:51:17;;;;;;;5.45;1.15;;;22.10;26.80;;;;;;5969728;29;20091;-70
2022/04/12 11:54:24;;;;;;;4.43;0.80;;;22.20;26.80;;;;;;5961056;29;20042;-71
2022/04/12 11:57:25;;;;;;;4.40;1.23;;;22.30;26.60;;;;;;5956211;29;20038;-70
2022/04/12 12:00:26;;;;;;;4.70;0.82;;;22.30;26.30;;;;;;5984727;29;20070;-71
2022/04/12 12:03:28;;;;;;;0.90;0.57;;;22.40;26.10;;;;;;5986380;29;20049;-70
2022/04/12 12:06:29;;;;;;;1.50;0.68;;;22.40;26.00;;;;;;5992574;29;20038;-68
2022/04/12 12:09:30;;;;;;;2.60;0.70;;;22.60;25.70;;;;;;5983456;29;20045;-70
2022/04/12 12:12:31;;;;;;;1.40;0.75;;;22.60;25.60;;;;;;5969958;29;20054;-70
2022/04/12 12:15:33;;;;;;;3.90;0.70;;;22.70;25.60;;;;;;5958736;29;20038;-69
2022/04/12 12:18:45;;;;;;;4.60;0.98;;;22.70;25.50;;;;;;5983034;29;20047;-69
2022/04/12 12:21:46;;;;;;;5.18;1.63;;;22.60;25.50;;;;;;5983300;29;20043;-69
2022/04/12 12:24:57;;;;;;;3.45;0.98;;;22.60;25.40;;;;;;5967302;29;20043;-70
2022/04/12 12:27:58;;;;;;;3.97;0.93;;;22.60;25.60;;;;;;5983262;29;20038;-70
2022/04/12 12:31:01;;;;;;;4.53;1.30;;;22.80;25.50;;;;;;5985171;29;20110;-69
2022/04/12 12:34:02;;;;;;;2.35;0.95;;;23.00;25.40;;;;;;5984239;29;20430;-69
2022/04/12 12:37:08;;;;;;;1.90;0.65;;;23.10;25.30;;;;;;5986022;29;20103;-69
2022/04/12 12:40:21;;;;;;;9.45;1.15;;;23.00;25.00;;;;;;5970672;29;20433;-69
2022/04/12 12:43:22;;;;;;;5.25;0.77;;;23.00;25.10;;;;;;5979844;29;20065;-69
2022/04/12 12:46:27;;;;;;;6.43;0.75;;;23.10;25.20;;;;;;5983278;29;20536;-70
2022/04/12 12:49:39;;;;;;;5.10;1.02;;;23.30;25.10;;;;;;5967472;29;20049;-69
2022/04/12 12:52:41;;;;;;;7.13;0.80;;;23.60;25.00;;;;;;5981059;29;20425;-69
2022/04/12 12:55:45;;;;;;;1.80;0.77;;;24.00;24.60;;;;;;5967041;29;20065;-69
2022/04/12 12:58:46;;;;;;;1.85;0.60;;;24.30;24.30;;;;;;5983708;29;20061;-69
2022/04/12 13:01:52;;;;;;;1.52;0.80;;;24.80;23.80;;;;;;5981885;29;20364;-69
2022/04/12 13:04:54;;;;;;;2.13;0.70;;;25.20;23.30;;;;;;5989557;29;20468;-69
2022/04/12 13:07:57;;;;;;;1.58;0.75;;;25.40;23.10;;;;;;5982521;29;20039;-70
2022/04/12 13:11:00;;;;;;;2.35;0.82;;;25.40;23.00;;;;;;5965699;29;20050;-70
2022/04/12 13:14:02;;;;;;;1.40;0.63;;;25.20;23.10;;;;;;5980532;29;20135;-70
2022/04/12 13:17:04;;;;;;;2.63;0.60;;;25.20;23.40;;;;;;5966583;29;20060;-69
2022/04/12 13:20:08;;;;;;;5.13;0.88;;;25.10;23.40;;;;;;5980512;29;20353;-69
2022/04/12 13:23:09;;;;;;;1.58;0.65;;;25.10;23.50;;;;;;5962168;29;20038;-68
2022/04/12 13:26:09;;;;;;;6.88;0.80;;;25.20;23.40;;;;;;5992354;29;20067;-69
2022/04/12 13:29:10;;;;;;;6.30;1.15;;;25.30;23.40;;;;;;5988743;29;20038;-69
2022/04/12 13:32:12;;;;;;;4.25;1.40;;;25.50;23.20;;;;;;5987393;29;20066;-70
2022/04/12 13:35:16;;;;;;;3.58;0.88;;;25.60;23.00;;;;;;5971111;29;20094;-69
2022/04/12 13:38:17;;;;;;;1.42;0.93;;;25.50;23.10;;;;;;5986459;29;20121;-70
2022/04/12 13:41:18;;;;;;;5.53;1.00;;;25.50;23.20;;;;;;5987200;29;20045;-69
2022/04/12 13:44:19;;;;;;;3.28;0.88;;;25.60;23.40;;;;;;5987021;29;20380;-70
2022/04/12 13:47:21;;;;;;;3.78;0.75;;;25.60;23.30;;;;;;5989322;29;20045;-69
2022/04/12 13:50:21;;;;;;;3.85;1.73;;;25.60;23.30;;;;;;5958832;29;20081;-69
2022/04/12 13:53:24;;;;;;;5.57;0.77;;;25.50;23.40;;;;;;5973372;29;20046;-70
2022/04/12 13:56:25;;;;;;;5.47;1.35;;;25.40;23.50;;;;;;5986675;29;20047;-70
2022/04/12 13:59:26;;;;;;;1.50;1.00;;;25.40;23.60;;;;;;5971656;29;20098;-70
2022/04/12 14:02:27;;;;;;;5.43;0.80;;;25.30;23.70;;;;;;5987043;29;20380;-69
2022/04/12 14:05:28;;;;;;;5.50;1.20;;;25.20;23.80;;;;;;5992990;29;20061;-70
2022/04/12 14:08:31;;;;;;;1.73;0.77;;;25.00;23.90;;;;;;5985915;29;20034;-69
2022/04/12 14:11:32;;;;;;;1.73;0.65;;;24.80;24.10;;;;;;5964463;29;20042;-69
2022/04/12 14:14:33;;;;;;;4.18;1.00;;;24.70;24.30;;;;;;5969133;29;20055;-70
2022/04/12 14:17:34;;;;;;;4.68;0.95;;;24.60;24.40;;;;;;5984394;29;20546;-69
2022/04/12 14:20:35;;;;;;;4.18;0.82;;;24.60;24.40;;;;;;5941515;29;20062;-69
2022/04/12 14:23:38;;;;;;;5.68;1.20;;;24.50;24.40;;;;;;5979467;29;20049;-70
2022/04/12 14:26:39;;;;;;;3.20;0.80;;;24.50;24.60;;;;;;5975731;29;20047;-70
2022/04/12 14:29:40;;;;;;;5.65;1.30;;;24.50;24.70;;;;;;5991717;29;20046;-69
2022/04/12 14:32:41;;;;;;;2.40;0.90;;;24.40;24.80;;;;;;5985005;29;20126;-69
2022/04/12 14:35:42;;;;;;;4.70;1.10;;;24.20;24.90;;;;;;5970059;29;20464;-70
2022/04/12 14:38:43;;;;;;;4.15;1.10;;;24.10;25.20;;;;;;5969361;29;20047;-69
2022/04/12 14:41:45;;;;;;;3.78;1.13;;;23.90;25.40;;;;;;5984274;29;20054;-69
2022/04/12 14:44:46;;;;;;;6.75;0.95;;;23.80;25.50;;;;;;5982958;29;20153;-69
2022/04/12 14:47:48;;;;;;;6.10;1.42;;;23.70;25.60;;;;;;5965982;29;20042;-69
2022/04/12 14:50:50;;;;;;;5.53;0.88;;;23.50;25.80;;;;;;5982706;29;20440;-70
2022/04/12 14:53:51;;;;;;;3.75;1.63;;;23.40;25.90;;;;;;5982843;29;20360;-71
2022/04/12 14:56:52;;;;;;;5.80;1.02;;;23.40;26.10;;;;;;5952123;29;20042;-70
2022/04/12 14:59:56;;;;;;;5.80;1.00;;;23.30;26.20;;;;;;5983694;29;20498;-70
2022/04/12 15:02:58;;;;;;;6.20;1.10;;;23.20;26.30;;;;;;5968072;29;20080;-71
2022/04/12 15:05:59;;;;;;;3.55;1.05;;;23.10;26.50;;;;;;5949414;29;20130;-70
2022/04/12 15:09:00;;;;;;;2.63;1.08;;;23.00;26.70;;;;;;5983678;29;20046;-70
2022/04/12 15:12:04;;;;;;;1.15;0.85;;;22.90;26.80;;;;;;5953366;29;20039;-69
2022/04/12 15:15:09;;;;;;;2.08;0.95;;;22.80;27.00;;;;;;5966070;29;20050;-69
2022/04/12 15:18:10;;;;;;;4.93;1.40;;;22.70;27.10;;;;;;5985238;29;20045;-69
2022/04/12 15:21:11;;;;;;;2.15;1.00;;;22.70;27.30;;;;;;5984584;29;20055;-71
2022/04/12 15:24:12;;;;;;;6.07;1.15;;;22.60;27.30;;;;;;5985875;29;20058;-70
2022/04/12 15:27:13;;;;;;;5.63;1.00;;;22.50;27.40;;;;;;5984319;29;20039;-68
2022/04/12 15:30:14;;;;;;;5.25;1.70;;;22.40;27.50;;;;;;5986005;29;20042;-69
2022/04/12 15:33:15;;;;;;;1.60;0.88;;;22.30;27.60;;;;;;5969180;29;20065;-69
2022/04/12 15:36:16;;;;;;;3.70;1.42;;;22.20;27.80;;;;;;5985449;29;20046;-69
2022/04/12 15:39:19;;;;;;;6.93;1.17;;;22.20;27.90;;;;;;5985506;29;20125;-70
2022/04/12 15:42:20;;;;;;;1.15;1.02;;;22.20;28.00;;;;;;5958569;29;20042;-69
2022/04/12 15:45:21;;;;;;;7.20;1.15;;;22.10;28.00;;;;;;5970213;29;20767;-69
2022/04/12 15:48:23;;;;;;;3.42;0.98;;;22.10;28.10;;;;;;5985513;29;20035;-69
2022/04/12 15:51:24;;;;;;;1.58;0.95;;;22.10;28.20;;;;;;5970676;29;20065;-69
2022/04/12 15:54:25;;;;;;;7.50;1.27;;;22.10;28.30;;;;;;5984128;29;20052;-70